Terminal Aerodrome Forecast
Issued by NWS

Home | Current Version | Previous Version | Text Only | Print | Product List | Glossary On
Versions: 1 2 3 4 5 6 7 8 9 10 11 12 13 14 15 16 17 18
000
FTUS43 KSGF 211100
TAFJLN
TAF
KJLN 211127Z 2112/2212 VRB03KT 2SM BR SKC
      TEMPO 2112/2114 1/4SM FG VV004
     FM211400 VRB03KT 1SM BR SCT004
     FM211500 VRB04KT 3SM BR SKC
     FM211600 10005KT P6SM SKC
     FM220600 12005KT 5SM BR OVC100=

USA.gov is the U.S. government's official web portal to all federal, state and local government web resources and services.